sensor_id;sensor_type;location;lat;lon;timestamp;P1;durP1;ratioP1;P2;durP2;ratioP2
15340;SDS011;7770;52.158;5.372;2022-07-29T00:00:35;2.70;;;2.50;;
15340;SDS011;7770;52.158;5.372;2022-07-29T00:03:22;4.77;;;2.80;;
15340;SDS011;7770;52.158;5.372;2022-07-29T00:06:08;3.77;;;2.53;;
15340;SDS011;7770;52.158;5.372;2022-07-29T00:08:54;7.23;;;2.87;;
15340;SDS011;7770;52.158;5.372;2022-07-29T00:11:40;2.93;;;2.60;;
15340;SDS011;7770;52.158;5.372;2022-07-29T00:14:26;3.83;;;2.80;;
15340;SDS011;7770;52.158;5.372;2022-07-29T00:17:13;5.47;;;2.67;;
15340;SDS011;7770;52.158;5.372;2022-07-29T00:19:59;5.40;;;2.70;;
15340;SDS011;7770;52.158;5.372;2022-07-29T00:22:45;3.27;;;2.73;;
15340;SDS011;7770;52.158;5.372;2022-07-29T00:25:31;3.17;;;2.60;;
15340;SDS011;7770;52.158;5.372;2022-07-29T00:28:17;4.13;;;3.00;;
15340;SDS011;7770;52.158;5.372;2022-07-29T00:31:03;3.80;;;2.80;;
15340;SDS011;7770;52.158;5.372;2022-07-29T00:33:49;7.63;;;3.20;;
15340;SDS011;7770;52.158;5.372;2022-07-29T00:36:35;3.63;;;2.70;;
15340;SDS011;7770;52.158;5.372;2022-07-29T00:39:21;3.70;;;2.80;;
15340;SDS011;7770;52.158;5.372;2022-07-29T00:42:08;4.87;;;3.30;;
15340;SDS011;7770;52.158;5.372;2022-07-29T00:44:54;3.40;;;2.90;;
15340;SDS011;7770;52.158;5.372;2022-07-29T00:47:41;5.17;;;2.70;;
15340;SDS011;7770;52.158;5.372;2022-07-29T00:50:27;5.17;;;2.60;;
15340;SDS011;7770;52.158;5.372;2022-07-29T00:53:13;4.77;;;2.80;;
15340;SDS011;7770;52.158;5.372;2022-07-29T00:55:59;3.67;;;2.50;;
15340;SDS011;7770;52.158;5.372;2022-07-29T00:58:46;4.53;;;2.47;;
15340;SDS011;7770;52.158;5.372;2022-07-29T01:01:33;5.47;;;2.77;;
15340;SDS011;7770;52.158;5.372;2022-07-29T01:04:20;3.60;;;2.77;;
15340;SDS011;7770;52.158;5.372;2022-07-29T01:07:06;4.13;;;2.60;;
15340;SDS011;7770;52.158;5.372;2022-07-29T01:09:53;3.13;;;2.70;;
15340;SDS011;7770;52.158;5.372;2022-07-29T01:12:40;3.53;;;2.87;;
15340;SDS011;7770;52.158;5.372;2022-07-29T01:15:29;4.37;;;2.87;;
15340;SDS011;7770;52.158;5.372;2022-07-29T01:21:33;3.13;;;2.80;;
15340;SDS011;7770;52.158;5.372;2022-07-29T01:24:48;5.60;;;2.63;;
15340;SDS011;7770;52.158;5.372;2022-07-29T01:27:51;3.50;;;2.70;;
15340;SDS011;7770;52.158;5.372;2022-07-29T01:31:07;4.57;;;2.77;;
15340;SDS011;7770;52.158;5.372;2022-07-29T01:33:57;4.57;;;2.90;;
15340;SDS011;7770;52.158;5.372;2022-07-29T01:36:48;3.33;;;2.77;;
15340;SDS011;7770;52.158;5.372;2022-07-29T01:39:50;4.47;;;2.90;;
15340;SDS011;7770;52.158;5.372;2022-07-29T01:42:44;3.57;;;2.90;;
15340;SDS011;7770;52.158;5.372;2022-07-29T01:45:40;5.33;;;3.03;;
15340;SDS011;7770;52.158;5.372;2022-07-29T01:48:48;3.93;;;2.90;;
15340;SDS011;7770;52.158;5.372;2022-07-29T01:51:54;6.17;;;3.27;;
15340;SDS011;7770;52.158;5.372;2022-07-29T01:54:54;6.00;;;3.40;;
15340;SDS011;7770;52.158;5.372;2022-07-29T01:57:44;4.27;;;3.00;;
15340;SDS011;7770;52.158;5.372;2022-07-29T02:00:33;4.40;;;2.90;;
15340;SDS011;7770;52.158;5.372;2022-07-29T02:03:20;4.17;;;3.23;;
15340;SDS011;7770;52.158;5.372;2022-07-29T02:06:07;3.37;;;3.07;;
15340;SDS011;7770;52.158;5.372;2022-07-29T02:08:56;3.70;;;3.40;;
15340;SDS011;7770;52.158;5.372;2022-07-29T02:11:47;5.83;;;3.70;;
15340;SDS011;7770;52.158;5.372;2022-07-29T02:14:38;3.97;;;3.30;;
15340;SDS011;7770;52.158;5.372;2022-07-29T02:17:40;3.97;;;3.00;;
15340;SDS011;7770;52.158;5.372;2022-07-29T02:20:34;5.47;;;3.50;;
15340;SDS011;7770;52.158;5.372;2022-07-29T02:23:23;4.33;;;3.50;;
15340;SDS011;7770;52.158;5.372;2022-07-29T02:26:10;3.50;;;3.20;;
15340;SDS011;7770;52.158;5.372;2022-07-29T02:28:57;4.73;;;3.20;;
15340;SDS011;7770;52.158;5.372;2022-07-29T02:31:45;5.40;;;3.60;;
15340;SDS011;7770;52.158;5.372;2022-07-29T02:34:33;4.43;;;3.70;;
15340;SDS011;7770;52.158;5.372;2022-07-29T02:37:19;6.43;;;3.40;;
15340;SDS011;7770;52.158;5.372;2022-07-29T02:40:08;5.10;;;3.33;;
15340;SDS011;7770;52.158;5.372;2022-07-29T02:42:56;3.77;;;3.13;;
15340;SDS011;7770;52.158;5.372;2022-07-29T02:45:43;4.57;;;3.70;;
15340;SDS011;7770;52.158;5.372;2022-07-29T02:48:44;6.37;;;3.37;;
15340;SDS011;7770;52.158;5.372;2022-07-29T02:51:54;4.63;;;3.50;;
15340;SDS011;7770;52.158;5.372;2022-07-29T02:54:46;5.87;;;3.43;;
15340;SDS011;7770;52.158;5.372;2022-07-29T03:00:43;5.00;;;3.17;;
15340;SDS011;7770;52.158;5.372;2022-07-29T03:03:34;4.00;;;3.60;;
15340;SDS011;7770;52.158;5.372;2022-07-29T03:06:23;4.20;;;3.70;;
15340;SDS011;7770;52.158;5.372;2022-07-29T03:09:12;6.17;;;3.70;;
15340;SDS011;7770;52.158;5.372;2022-07-29T03:11:59;3.60;;;3.20;;
15340;SDS011;7770;52.158;5.372;2022-07-29T03:14:46;4.23;;;3.27;;
15340;SDS011;7770;52.158;5.372;2022-07-29T03:17:33;4.13;;;3.63;;
15340;SDS011;7770;52.158;5.372;2022-07-29T03:20:20;5.37;;;3.70;;
15340;SDS011;7770;52.158;5.372;2022-07-29T03:23:07;4.57;;;3.57;;
15340;SDS011;7770;52.158;5.372;2022-07-29T03:25:54;3.83;;;3.40;;
15340;SDS011;7770;52.158;5.372;2022-07-29T03:28:41;3.57;;;3.27;;
15340;SDS011;7770;52.158;5.372;2022-07-29T03:31:27;4.60;;;3.70;;
15340;SDS011;7770;52.158;5.372;2022-07-29T03:34:13;6.20;;;4.10;;
15340;SDS011;7770;52.158;5.372;2022-07-29T03:36:59;4.60;;;3.60;;
15340;SDS011;7770;52.158;5.372;2022-07-29T03:39:45;4.60;;;3.40;;
15340;SDS011;7770;52.158;5.372;2022-07-29T03:42:32;4.07;;;3.53;;
15340;SDS011;7770;52.158;5.372;2022-07-29T03:45:21;4.53;;;3.80;;
15340;SDS011;7770;52.158;5.372;2022-07-29T03:48:08;4.03;;;3.50;;
15340;SDS011;7770;52.158;5.372;2022-07-29T03:50:58;4.50;;;3.83;;
15340;SDS011;7770;52.158;5.372;2022-07-29T03:53:44;5.00;;;4.20;;
15340;SDS011;7770;52.158;5.372;2022-07-29T03:56:31;5.63;;;4.47;;
15340;SDS011;7770;52.158;5.372;2022-07-29T03:59:20;5.50;;;4.23;;
15340;SDS011;7770;52.158;5.372;2022-07-29T04:02:08;7.70;;;4.50;;
15340;SDS011;7770;52.158;5.372;2022-07-29T04:04:56;6.00;;;4.70;;
15340;SDS011;7770;52.158;5.372;2022-07-29T04:07:46;5.30;;;4.60;;
15340;SDS011;7770;52.158;5.372;2022-07-29T04:10:33;4.67;;;4.20;;
15340;SDS011;7770;52.158;5.372;2022-07-29T04:13:20;5.53;;;4.33;;
15340;SDS011;7770;52.158;5.372;2022-07-29T04:16:06;6.07;;;4.50;;
15340;SDS011;7770;52.158;5.372;2022-07-29T04:18:52;8.13;;;3.77;;
15340;SDS011;7770;52.158;5.372;2022-07-29T04:21:38;7.00;;;4.10;;
15340;SDS011;7770;52.158;5.372;2022-07-29T04:24:26;4.83;;;3.87;;
15340;SDS011;7770;52.158;5.372;2022-07-29T04:27:12;4.80;;;4.30;;
15340;SDS011;7770;52.158;5.372;2022-07-29T04:29:58;6.37;;;4.20;;
15340;SDS011;7770;52.158;5.372;2022-07-29T04:32:44;5.60;;;4.10;;
15340;SDS011;7770;52.158;5.372;2022-07-29T04:35:33;6.13;;;4.70;;
15340;SDS011;7770;52.158;5.372;2022-07-29T04:38:21;7.90;;;4.70;;
15340;SDS011;7770;52.158;5.372;2022-07-29T04:41:07;5.87;;;5.20;;
15340;SDS011;7770;52.158;5.372;2022-07-29T04:43:54;6.90;;;5.33;;
15340;SDS011;7770;52.158;5.372;2022-07-29T04:46:40;5.43;;;4.87;;
15340;SDS011;7770;52.158;5.372;2022-07-29T04:49:26;6.93;;;4.87;;
15340;SDS011;7770;52.158;5.372;2022-07-29T04:52:12;5.73;;;4.43;;
15340;SDS011;7770;52.158;5.372;2022-07-29T04:54:58;6.07;;;4.77;;
15340;SDS011;7770;52.158;5.372;2022-07-29T04:57:44;6.13;;;4.57;;
15340;SDS011;7770;52.158;5.372;2022-07-29T05:00:30;5.23;;;4.50;;
15340;SDS011;7770;52.158;5.372;2022-07-29T05:03:17;4.83;;;3.87;;
15340;SDS011;7770;52.158;5.372;2022-07-29T05:06:03;5.70;;;4.27;;
15340;SDS011;7770;52.158;5.372;2022-07-29T05:08:49;4.87;;;4.30;;
15340;SDS011;7770;52.158;5.372;2022-07-29T05:11:35;4.07;;;3.67;;
15340;SDS011;7770;52.158;5.372;2022-07-29T05:14:21;6.63;;;4.10;;
15340;SDS011;7770;52.158;5.372;2022-07-29T05:17:07;4.30;;;3.90;;
15340;SDS011;7770;52.158;5.372;2022-07-29T05:19:53;8.23;;;4.50;;
15340;SDS011;7770;52.158;5.372;2022-07-29T05:22:39;4.93;;;4.17;;
15340;SDS011;7770;52.158;5.372;2022-07-29T05:25:26;5.07;;;3.97;;
15340;SDS011;7770;52.158;5.372;2022-07-29T05:28:13;5.30;;;4.27;;
15340;SDS011;7770;52.158;5.372;2022-07-29T05:30:59;5.90;;;4.10;;
15340;SDS011;7770;52.158;5.372;2022-07-29T05:33:45;4.90;;;4.20;;
15340;SDS011;7770;52.158;5.372;2022-07-29T05:36:31;5.87;;;4.33;;
15340;SDS011;7770;52.158;5.372;2022-07-29T05:39:17;6.30;;;3.80;;
15340;SDS011;7770;52.158;5.372;2022-07-29T05:42:03;5.60;;;4.50;;
15340;SDS011;7770;52.158;5.372;2022-07-29T05:44:54;5.80;;;4.10;;
15340;SDS011;7770;52.158;5.372;2022-07-29T05:47:41;4.90;;;4.40;;
15340;SDS011;7770;52.158;5.372;2022-07-29T05:50:27;4.90;;;4.40;;
15340;SDS011;7770;52.158;5.372;2022-07-29T05:53:13;4.60;;;4.07;;
15340;SDS011;7770;52.158;5.372;2022-07-29T05:56:02;4.67;;;3.90;;
15340;SDS011;7770;52.158;5.372;2022-07-29T05:58:50;4.90;;;3.67;;
15340;SDS011;7770;52.158;5.372;2022-07-29T06:01:36;4.00;;;3.70;;
15340;SDS011;7770;52.158;5.372;2022-07-29T06:04:24;4.67;;;3.40;;
15340;SDS011;7770;52.158;5.372;2022-07-29T06:07:10;3.83;;;3.40;;
15340;SDS011;7770;52.158;5.372;2022-07-29T06:09:56;4.77;;;3.63;;
15340;SDS011;7770;52.158;5.372;2022-07-29T06:12:42;5.07;;;3.53;;
15340;SDS011;7770;52.158;5.372;2022-07-29T06:15:28;4.43;;;3.53;;
15340;SDS011;7770;52.158;5.372;2022-07-29T06:18:14;6.27;;;3.87;;
15340;SDS011;7770;52.158;5.372;2022-07-29T06:21:00;3.83;;;3.53;;
15340;SDS011;7770;52.158;5.372;2022-07-29T06:23:46;4.20;;;3.80;;
15340;SDS011;7770;52.158;5.372;2022-07-29T06:26:32;4.90;;;3.73;;
15340;SDS011;7770;52.158;5.372;2022-07-29T06:29:18;6.20;;;3.87;;
15340;SDS011;7770;52.158;5.372;2022-07-29T06:32:04;4.70;;;3.87;;
15340;SDS011;7770;52.158;5.372;2022-07-29T06:34:51;4.60;;;3.77;;
15340;SDS011;7770;52.158;5.372;2022-07-29T06:37:37;7.57;;;4.07;;
15340;SDS011;7770;52.158;5.372;2022-07-29T06:40:23;5.87;;;4.47;;
15340;SDS011;7770;52.158;5.372;2022-07-29T06:43:34;4.70;;;3.70;;
15340;SDS011;7770;52.158;5.372;2022-07-29T06:46:28;5.87;;;3.87;;
15340;SDS011;7770;52.158;5.372;2022-07-29T06:49:15;6.60;;;3.93;;
15340;SDS011;7770;52.158;5.372;2022-07-29T06:52:01;5.90;;;4.13;;
15340;SDS011;7770;52.158;5.372;2022-07-29T06:54:47;5.63;;;3.93;;
15340;SDS011;7770;52.158;5.372;2022-07-29T06:57:33;4.20;;;3.80;;
15340;SDS011;7770;52.158;5.372;2022-07-29T07:00:19;5.90;;;4.37;;
15340;SDS011;7770;52.158;5.372;2022-07-29T07:03:05;5.33;;;3.77;;
15340;SDS011;7770;52.158;5.372;2022-07-29T07:05:52;4.57;;;3.93;;
15340;SDS011;7770;52.158;5.372;2022-07-29T07:08:39;3.90;;;3.50;;
15340;SDS011;7770;52.158;5.372;2022-07-29T07:11:25;6.80;;;4.10;;
15340;SDS011;7770;52.158;5.372;2022-07-29T07:14:12;5.33;;;4.40;;
15340;SDS011;7770;52.158;5.372;2022-07-29T07:16:58;5.27;;;4.03;;
15340;SDS011;7770;52.158;5.372;2022-07-29T07:19:45;4.07;;;3.67;;
15340;SDS011;7770;52.158;5.372;2022-07-29T07:22:31;3.70;;;3.40;;
15340;SDS011;7770;52.158;5.372;2022-07-29T07:25:17;5.07;;;3.47;;
15340;SDS011;7770;52.158;5.372;2022-07-29T07:28:03;3.90;;;3.40;;
15340;SDS011;7770;52.158;5.372;2022-07-29T07:30:49;6.68;;;3.22;;
15340;SDS011;7770;52.158;5.372;2022-07-29T07:33:36;5.03;;;3.17;;
15340;SDS011;7770;52.158;5.372;2022-07-29T07:36:22;4.03;;;3.58;;
15340;SDS011;7770;52.158;5.372;2022-07-29T07:39:09;4.10;;;3.35;;
15340;SDS011;7770;52.158;5.372;2022-07-29T07:41:55;4.07;;;3.10;;
15340;SDS011;7770;52.158;5.372;2022-07-29T07:44:41;3.78;;;3.42;;
15340;SDS011;7770;52.158;5.372;2022-07-29T07:47:27;3.65;;;3.17;;
15340;SDS011;7770;52.158;5.372;2022-07-29T07:50:13;4.93;;;3.35;;
15340;SDS011;7770;52.158;5.372;2022-07-29T07:52:59;5.57;;;3.35;;
15340;SDS011;7770;52.158;5.372;2022-07-29T07:55:47;4.28;;;3.40;;
15340;SDS011;7770;52.158;5.372;2022-07-29T07:58:33;6.82;;;3.47;;
15340;SDS011;7770;52.158;5.372;2022-07-29T08:01:20;3.45;;;3.15;;
15340;SDS011;7770;52.158;5.372;2022-07-29T08:04:08;4.82;;;3.38;;
15340;SDS011;7770;52.158;5.372;2022-07-29T08:06:55;4.85;;;3.60;;
15340;SDS011;7770;52.158;5.372;2022-07-29T08:09:42;3.58;;;3.20;;
15340;SDS011;7770;52.158;5.372;2022-07-29T08:12:28;3.60;;;3.30;;
15340;SDS011;7770;52.158;5.372;2022-07-29T08:15:14;5.55;;;3.45;;
15340;SDS011;7770;52.158;5.372;2022-07-29T08:18:00;5.35;;;3.40;;
15340;SDS011;7770;52.158;5.372;2022-07-29T08:20:47;5.95;;;3.50;;
15340;SDS011;7770;52.158;5.372;2022-07-29T08:23:33;5.05;;;3.58;;
15340;SDS011;7770;52.158;5.372;2022-07-29T08:26:30;3.72;;;3.40;;
15340;SDS011;7770;52.158;5.372;2022-07-29T08:29:16;4.63;;;3.47;;
15340;SDS011;7770;52.158;5.372;2022-07-29T08:32:03;4.10;;;3.70;;
15340;SDS011;7770;52.158;5.372;2022-07-29T08:34:49;8.13;;;4.60;;
15340;SDS011;7770;52.158;5.372;2022-07-29T08:37:35;4.57;;;3.38;;
15340;SDS011;7770;52.158;5.372;2022-07-29T08:40:22;5.90;;;3.60;;
15340;SDS011;7770;52.158;5.372;2022-07-29T08:43:09;4.95;;;3.05;;
15340;SDS011;7770;52.158;5.372;2022-07-29T08:45:55;4.80;;;3.17;;
15340;SDS011;7770;52.158;5.372;2022-07-29T08:48:41;4.68;;;3.30;;
15340;SDS011;7770;52.158;5.372;2022-07-29T08:51:27;5.93;;;3.38;;
15340;SDS011;7770;52.158;5.372;2022-07-29T08:54:16;5.72;;;3.40;;
15340;SDS011;7770;52.158;5.372;2022-07-29T08:57:03;4.38;;;3.42;;
15340;SDS011;7770;52.158;5.372;2022-07-29T08:59:50;4.47;;;3.58;;
15340;SDS011;7770;52.158;5.372;2022-07-29T09:02:39;5.18;;;3.53;;
15340;SDS011;7770;52.158;5.372;2022-07-29T09:05:31;3.40;;;3.10;;
15340;SDS011;7770;52.158;5.372;2022-07-29T09:08:17;4.70;;;3.30;;
15340;SDS011;7770;52.158;5.372;2022-07-29T09:11:05;4.70;;;3.50;;
15340;SDS011;7770;52.158;5.372;2022-07-29T09:13:52;5.70;;;3.30;;
15340;SDS011;7770;52.158;5.372;2022-07-29T09:16:52;5.28;;;3.35;;
15340;SDS011;7770;52.158;5.372;2022-07-29T09:19:41;4.13;;;3.38;;
15340;SDS011;7770;52.158;5.372;2022-07-29T09:22:30;6.03;;;3.25;;
15340;SDS011;7770;52.158;5.372;2022-07-29T09:25:34;5.78;;;4.30;;
15340;SDS011;7770;52.158;5.372;2022-07-29T09:28:21;4.45;;;3.53;;
15340;SDS011;7770;52.158;5.372;2022-07-29T09:31:08;4.60;;;3.70;;
15340;SDS011;7770;52.158;5.372;2022-07-29T09:33:54;5.22;;;3.63;;
15340;SDS011;7770;52.158;5.372;2022-07-29T09:36:45;4.10;;;3.70;;
15340;SDS011;7770;52.158;5.372;2022-07-29T09:42:29;5.60;;;3.70;;
15340;SDS011;7770;52.158;5.372;2022-07-29T09:45:30;5.88;;;3.83;;
15340;SDS011;7770;52.158;5.372;2022-07-29T09:48:22;6.07;;;3.92;;
15340;SDS011;7770;52.158;5.372;2022-07-29T09:51:17;4.25;;;3.85;;
15340;SDS011;7770;52.158;5.372;2022-07-29T09:54:24;4.55;;;3.92;;
15340;SDS011;7770;52.158;5.372;2022-07-29T09:57:26;4.70;;;4.13;;
15340;SDS011;7770;52.158;5.372;2022-07-29T10:03:03;4.32;;;3.92;;
15340;SDS011;7770;52.158;5.372;2022-07-29T10:06:03;4.82;;;4.03;;
15340;SDS011;7770;52.158;5.372;2022-07-29T10:08:51;6.35;;;4.35;;
15340;SDS011;7770;52.158;5.372;2022-07-29T10:11:37;6.63;;;4.38;;
15340;SDS011;7770;52.158;5.372;2022-07-29T10:14:23;4.22;;;3.63;;
15340;SDS011;7770;52.158;5.372;2022-07-29T10:17:10;7.55;;;4.55;;
15340;SDS011;7770;52.158;5.372;2022-07-29T10:19:56;6.72;;;4.05;;
15340;SDS011;7770;52.158;5.372;2022-07-29T10:22:42;11.35;;;4.30;;
15340;SDS011;7770;52.158;5.372;2022-07-29T10:25:29;6.90;;;4.05;;
15340;SDS011;7770;52.158;5.372;2022-07-29T10:28:15;5.22;;;3.70;;
15340;SDS011;7770;52.158;5.372;2022-07-29T10:31:04;6.00;;;3.80;;
15340;SDS011;7770;52.158;5.372;2022-07-29T10:33:56;4.93;;;3.60;;
15340;SDS011;7770;52.158;5.372;2022-07-29T10:37:14;6.15;;;3.97;;
15340;SDS011;7770;52.158;5.372;2022-07-29T10:44:09;5.70;;;3.80;;
15340;SDS011;7770;52.158;5.372;2022-07-29T10:47:00;4.07;;;3.53;;
15340;SDS011;7770;52.158;5.372;2022-07-29T10:49:59;7.68;;;3.65;;
15340;SDS011;7770;52.158;5.372;2022-07-29T10:55:38;7.10;;;3.60;;
15340;SDS011;7770;52.158;5.372;2022-07-29T10:58:33;6.38;;;4.40;;
15340;SDS011;7770;52.158;5.372;2022-07-29T11:01:29;6.70;;;4.10;;
15340;SDS011;7770;52.158;5.372;2022-07-29T11:04:26;4.82;;;4.20;;
15340;SDS011;7770;52.158;5.372;2022-07-29T11:07:28;6.72;;;4.47;;
15340;SDS011;7770;52.158;5.372;2022-07-29T11:13:00;7.28;;;4.72;;
15340;SDS011;7770;52.158;5.372;2022-07-29T11:15:56;4.85;;;4.45;;
15340;SDS011;7770;52.158;5.372;2022-07-29T11:21:57;6.05;;;4.45;;
15340;SDS011;7770;52.158;5.372;2022-07-29T11:24:43;5.45;;;4.63;;
15340;SDS011;7770;52.158;5.372;2022-07-29T11:27:32;7.38;;;4.55;;
15340;SDS011;7770;52.158;5.372;2022-07-29T11:30:46;5.60;;;3.92;;
15340;SDS011;7770;52.158;5.372;2022-07-29T11:33:37;6.88;;;4.40;;
15340;SDS011;7770;52.158;5.372;2022-07-29T11:36:25;7.88;;;4.75;;
15340;SDS011;7770;52.158;5.372;2022-07-29T11:39:26;5.35;;;4.10;;
15340;SDS011;7770;52.158;5.372;2022-07-29T11:45:06;6.10;;;4.20;;
15340;SDS011;7770;52.158;5.372;2022-07-29T11:47:58;10.20;;;4.00;;
15340;SDS011;7770;52.158;5.372;2022-07-29T11:50:45;6.20;;;4.07;;
15340;SDS011;7770;52.158;5.372;2022-07-29T11:53:31;4.72;;;3.88;;
15340;SDS011;7770;52.158;5.372;2022-07-29T11:56:20;6.45;;;3.88;;
15340;SDS011;7770;52.158;5.372;2022-07-29T11:59:07;9.05;;;4.32;;
15340;SDS011;7770;52.158;5.372;2022-07-29T12:01:55;5.32;;;4.30;;
15340;SDS011;7770;52.158;5.372;2022-07-29T12:04:49;5.82;;;4.57;;
15340;SDS011;7770;52.158;5.372;2022-07-29T12:07:40;11.15;;;5.05;;
15340;SDS011;7770;52.158;5.372;2022-07-29T12:10:29;7.65;;;4.35;;
15340;SDS011;7770;52.158;5.372;2022-07-29T12:13:17;5.35;;;4.25;;
15340;SDS011;7770;52.158;5.372;2022-07-29T12:16:05;5.32;;;3.80;;
15340;SDS011;7770;52.158;5.372;2022-07-29T12:18:58;5.45;;;3.10;;
15340;SDS011;7770;52.158;5.372;2022-07-29T12:21:53;6.80;;;4.00;;
15340;SDS011;7770;52.158;5.372;2022-07-29T12:24:44;7.38;;;3.83;;
15340;SDS011;7770;52.158;5.372;2022-07-29T12:27:30;6.80;;;3.70;;
15340;SDS011;7770;52.158;5.372;2022-07-29T12:30:17;6.97;;;3.63;;
15340;SDS011;7770;52.158;5.372;2022-07-29T12:33:09;8.95;;;4.65;;
15340;SDS011;7770;52.158;5.372;2022-07-29T12:36:09;8.07;;;4.50;;
15340;SDS011;7770;52.158;5.372;2022-07-29T12:38:55;5.13;;;4.15;;
15340;SDS011;7770;52.158;5.372;2022-07-29T12:41:41;7.90;;;4.63;;
15340;SDS011;7770;52.158;5.372;2022-07-29T12:44:42;5.28;;;3.90;;
15340;SDS011;7770;52.158;5.372;2022-07-29T12:47:32;7.03;;;4.07;;
15340;SDS011;7770;52.158;5.372;2022-07-29T12:50:18;7.03;;;4.20;;
15340;SDS011;7770;52.158;5.372;2022-07-29T12:53:09;4.90;;;3.90;;
15340;SDS011;7770;52.158;5.372;2022-07-29T12:55:57;5.32;;;4.20;;
15340;SDS011;7770;52.158;5.372;2022-07-29T12:58:46;5.32;;;4.07;;
15340;SDS011;7770;52.158;5.372;2022-07-29T13:01:36;11.43;;;4.80;;
15340;SDS011;7770;52.158;5.372;2022-07-29T13:04:26;5.65;;;4.28;;
15340;SDS011;7770;52.158;5.372;2022-07-29T13:07:14;7.97;;;5.28;;
15340;SDS011;7770;52.158;5.372;2022-07-29T13:13:10;9.07;;;6.32;;
15340;SDS011;7770;52.158;5.372;2022-07-29T13:16:06;9.18;;;5.93;;
15340;SDS011;7770;52.158;5.372;2022-07-29T13:21:56;10.90;;;6.32;;
15340;SDS011;7770;52.158;5.372;2022-07-29T13:24:55;7.65;;;5.93;;
15340;SDS011;7770;52.158;5.372;2022-07-29T13:27:48;9.70;;;6.90;;
15340;SDS011;7770;52.158;5.372;2022-07-29T13:30:35;7.60;;;6.43;;
15340;SDS011;7770;52.158;5.372;2022-07-29T13:33:21;6.38;;;5.28;;
15340;SDS011;7770;52.158;5.372;2022-07-29T13:36:07;8.88;;;6.55;;
15340;SDS011;7770;52.158;5.372;2022-07-29T13:38:53;9.20;;;6.57;;
15340;SDS011;7770;52.158;5.372;2022-07-29T13:41:39;8.50;;;6.20;;
15340;SDS011;7770;52.158;5.372;2022-07-29T13:44:25;9.85;;;6.07;;
15340;SDS011;7770;52.158;5.372;2022-07-29T13:47:11;6.80;;;6.13;;
15340;SDS011;7770;52.158;5.372;2022-07-29T13:49:57;6.57;;;5.18;;
15340;SDS011;7770;52.158;5.372;2022-07-29T13:52:47;6.80;;;6.10;;
15340;SDS011;7770;52.158;5.372;2022-07-29T13:55:35;6.45;;;5.82;;
15340;SDS011;7770;52.158;5.372;2022-07-29T13:58:21;11.25;;;6.25;;
15340;SDS011;7770;52.158;5.372;2022-07-29T14:01:07;9.82;;;6.05;;
15340;SDS011;7770;52.158;5.372;2022-07-29T14:03:54;7.35;;;5.30;;
15340;SDS011;7770;52.158;5.372;2022-07-29T14:06:40;8.27;;;5.88;;
15340;SDS011;7770;52.158;5.372;2022-07-29T14:09:26;7.38;;;5.38;;
15340;SDS011;7770;52.158;5.372;2022-07-29T14:12:12;6.00;;;5.22;;
15340;SDS011;7770;52.158;5.372;2022-07-29T14:14:58;9.95;;;6.20;;
15340;SDS011;7770;52.158;5.372;2022-07-29T14:17:44;7.35;;;4.63;;
15340;SDS011;7770;52.158;5.372;2022-07-29T14:20:30;7.55;;;4.70;;
15340;SDS011;7770;52.158;5.372;2022-07-29T14:23:17;7.55;;;4.40;;
15340;SDS011;7770;52.158;5.372;2022-07-29T14:26:03;7.25;;;5.18;;
15340;SDS011;7770;52.158;5.372;2022-07-29T14:28:49;7.28;;;5.00;;
15340;SDS011;7770;52.158;5.372;2022-07-29T14:31:35;5.88;;;4.80;;
15340;SDS011;7770;52.158;5.372;2022-07-29T14:34:21;5.82;;;4.20;;
15340;SDS011;7770;52.158;5.372;2022-07-29T14:37:07;8.15;;;4.15;;
15340;SDS011;7770;52.158;5.372;2022-07-29T14:39:53;5.15;;;4.10;;
15340;SDS011;7770;52.158;5.372;2022-07-29T14:42:44;4.75;;;3.40;;
15340;SDS011;7770;52.158;5.372;2022-07-29T14:45:30;8.02;;;5.03;;
15340;SDS011;7770;52.158;5.372;2022-07-29T14:48:16;6.72;;;4.68;;
15340;SDS011;7770;52.158;5.372;2022-07-29T14:51:02;4.15;;;3.75;;
15340;SDS011;7770;52.158;5.372;2022-07-29T14:53:48;4.90;;;3.60;;
15340;SDS011;7770;52.158;5.372;2022-07-29T14:56:35;6.55;;;4.32;;
15340;SDS011;7770;52.158;5.372;2022-07-29T14:59:21;6.78;;;4.63;;
15340;SDS011;7770;52.158;5.372;2022-07-29T15:02:07;4.97;;;3.60;;
15340;SDS011;7770;52.158;5.372;2022-07-29T15:04:54;7.75;;;4.20;;
15340;SDS011;7770;52.158;5.372;2022-07-29T15:07:40;7.90;;;4.28;;
15340;SDS011;7770;52.158;5.372;2022-07-29T15:10:26;4.70;;;3.85;;
15340;SDS011;7770;52.158;5.372;2022-07-29T15:13:13;6.50;;;4.03;;
15340;SDS011;7770;52.158;5.372;2022-07-29T15:15:59;4.90;;;3.83;;
15340;SDS011;7770;52.158;5.372;2022-07-29T15:18:45;4.28;;;3.40;;
15340;SDS011;7770;52.158;5.372;2022-07-29T15:21:31;5.13;;;3.70;;
15340;SDS011;7770;52.158;5.372;2022-07-29T15:24:17;8.18;;;3.50;;
15340;SDS011;7770;52.158;5.372;2022-07-29T15:27:04;3.97;;;3.13;;
15340;SDS011;7770;52.158;5.372;2022-07-29T15:29:50;3.20;;;2.88;;
15340;SDS011;7770;52.158;5.372;2022-07-29T15:32:36;4.07;;;2.97;;
15340;SDS011;7770;52.158;5.372;2022-07-29T15:35:23;3.30;;;2.97;;
15340;SDS011;7770;52.158;5.372;2022-07-29T15:38:09;5.68;;;3.25;;
15340;SDS011;7770;52.158;5.372;2022-07-29T15:40:55;4.05;;;3.05;;
15340;SDS011;7770;52.158;5.372;2022-07-29T15:43:44;3.30;;;2.92;;
15340;SDS011;7770;52.158;5.372;2022-07-29T15:46:32;3.92;;;3.00;;
15340;SDS011;7770;52.158;5.372;2022-07-29T15:49:38;4.73;;;2.90;;
15340;SDS011;7770;52.158;5.372;2022-07-29T15:52:25;4.75;;;2.85;;
15340;SDS011;7770;52.158;5.372;2022-07-29T15:55:11;5.93;;;2.88;;
15340;SDS011;7770;52.158;5.372;2022-07-29T15:57:57;5.05;;;2.70;;
15340;SDS011;7770;52.158;5.372;2022-07-29T16:00:43;5.20;;;3.00;;
15340;SDS011;7770;52.158;5.372;2022-07-29T16:03:29;4.13;;;2.80;;
15340;SDS011;7770;52.158;5.372;2022-07-29T16:06:15;2.87;;;2.43;;
15340;SDS011;7770;52.158;5.372;2022-07-29T16:09:01;4.63;;;2.60;;
15340;SDS011;7770;52.158;5.372;2022-07-29T16:11:48;5.45;;;2.75;;
15340;SDS011;7770;52.158;5.372;2022-07-29T16:14:37;4.20;;;2.65;;
15340;SDS011;7770;52.158;5.372;2022-07-29T16:17:23;4.63;;;3.13;;
15340;SDS011;7770;52.158;5.372;2022-07-29T16:20:09;4.38;;;2.85;;
15340;SDS011;7770;52.158;5.372;2022-07-29T16:22:56;7.10;;;3.00;;
15340;SDS011;7770;52.158;5.372;2022-07-29T16:25:42;8.70;;;7.25;;
15340;SDS011;7770;52.158;5.372;2022-07-29T16:28:28;3.73;;;2.73;;
15340;SDS011;7770;52.158;5.372;2022-07-29T16:31:15;3.87;;;3.43;;
15340;SDS011;7770;52.158;5.372;2022-07-29T16:34:02;5.53;;;3.40;;
15340;SDS011;7770;52.158;5.372;2022-07-29T16:36:48;5.05;;;3.40;;
15340;SDS011;7770;52.158;5.372;2022-07-29T16:39:34;5.22;;;3.28;;
15340;SDS011;7770;52.158;5.372;2022-07-29T16:42:20;4.05;;;3.00;;
15340;SDS011;7770;52.158;5.372;2022-07-29T16:45:06;4.82;;;3.05;;
15340;SDS011;7770;52.158;5.372;2022-07-29T16:47:53;4.50;;;3.30;;
15340;SDS011;7770;52.158;5.372;2022-07-29T16:50:40;7.37;;;3.40;;
15340;SDS011;7770;52.158;5.372;2022-07-29T16:53:26;3.63;;;3.03;;
15340;SDS011;7770;52.158;5.372;2022-07-29T16:56:12;3.37;;;2.80;;
15340;SDS011;7770;52.158;5.372;2022-07-29T16:58:58;4.43;;;3.13;;
15340;SDS011;7770;52.158;5.372;2022-07-29T17:01:44;4.10;;;3.17;;
15340;SDS011;7770;52.158;5.372;2022-07-29T17:04:30;4.93;;;2.90;;
15340;SDS011;7770;52.158;5.372;2022-07-29T17:07:16;7.40;;;3.20;;
15340;SDS011;7770;52.158;5.372;2022-07-29T17:10:03;6.57;;;3.30;;
15340;SDS011;7770;52.158;5.372;2022-07-29T17:12:52;7.13;;;3.03;;
15340;SDS011;7770;52.158;5.372;2022-07-29T17:15:38;3.53;;;3.20;;
15340;SDS011;7770;52.158;5.372;2022-07-29T17:18:24;6.83;;;3.20;;
15340;SDS011;7770;52.158;5.372;2022-07-29T17:21:10;6.83;;;2.97;;
15340;SDS011;7770;52.158;5.372;2022-07-29T17:23:56;5.17;;;3.30;;
15340;SDS011;7770;52.158;5.372;2022-07-29T17:26:43;5.60;;;3.00;;
15340;SDS011;7770;52.158;5.372;2022-07-29T17:29:29;4.20;;;3.10;;
15340;SDS011;7770;52.158;5.372;2022-07-29T17:32:15;5.30;;;3.53;;
15340;SDS011;7770;52.158;5.372;2022-07-29T17:35:02;6.13;;;3.13;;
15340;SDS011;7770;52.158;5.372;2022-07-29T17:38:10;4.27;;;3.10;;
15340;SDS011;7770;52.158;5.372;2022-07-29T17:40:56;4.43;;;3.17;;
15340;SDS011;7770;52.158;5.372;2022-07-29T17:43:42;5.23;;;3.03;;